sensor_id;sensor_type;location;lat;lon;timestamp;temperature;humidity
22416;DHT22;12204;50.600;4.608;2023-05-10T00:03:03;23.00;78.00
22416;DHT22;12204;50.600;4.608;2023-05-10T00:08:12;23.00;77.90
22416;DHT22;12204;50.600;4.608;2023-05-10T00:13:17;23.10;78.20
22416;DHT22;12204;50.600;4.608;2023-05-10T00:18:22;23.00;78.10
22416;DHT22;12204;50.600;4.608;2023-05-10T00:23:28;23.10;78.20
22416;DHT22;12204;50.600;4.608;2023-05-10T00:28:34;23.00;78.10
22416;DHT22;12204;50.600;4.608;2023-05-10T00:33:38;23.00;78.10
22416;DHT22;12204;50.600;4.608;2023-05-10T00:38:44;23.00;78.20
22416;DHT22;12204;50.600;4.608;2023-05-10T00:43:48;23.10;78.30
22416;DHT22;12204;50.600;4.608;2023-05-10T00:48:52;23.10;78.40
22416;DHT22;12204;50.600;4.608;2023-05-10T00:53:57;23.00;78.30
22416;DHT22;12204;50.600;4.608;2023-05-10T00:59:03;23.00;78.30
22416;DHT22;12204;50.600;4.608;2023-05-10T01:04:08;23.00;78.40
22416;DHT22;12204;50.600;4.608;2023-05-10T01:09:15;23.10;78.50
22416;DHT22;12204;50.600;4.608;2023-05-10T01:14:23;23.00;78.50
22416;DHT22;12204;50.600;4.608;2023-05-10T01:19:31;23.00;78.50
22416;DHT22;12204;50.600;4.608;2023-05-10T01:30:48;23.00;78.50
22416;DHT22;12204;50.600;4.608;2023-05-10T01:36:32;23.00;78.60
22416;DHT22;12204;50.600;4.608;2023-05-10T01:41:51;23.00;78.70
22416;DHT22;12204;50.600;4.608;2023-05-10T01:47:04;23.00;78.70
22416;DHT22;12204;50.600;4.608;2023-05-10T01:52:16;23.00;78.80
22416;DHT22;12204;50.600;4.608;2023-05-10T01:57:26;23.00;78.70
22416;DHT22;12204;50.600;4.608;2023-05-10T02:02:37;23.00;78.40
22416;DHT22;12204;50.600;4.608;2023-05-10T02:07:47;23.00;78.50
22416;DHT22;12204;50.600;4.608;2023-05-10T02:12:55;23.00;78.20
22416;DHT22;12204;50.600;4.608;2023-05-10T02:18:04;23.00;78.30
22416;DHT22;12204;50.600;4.608;2023-05-10T02:23:12;23.00;78.10
22416;DHT22;12204;50.600;4.608;2023-05-10T02:28:18;23.00;78.00
22416;DHT22;12204;50.600;4.608;2023-05-10T02:33:24;23.00;78.00
22416;DHT22;12204;50.600;4.608;2023-05-10T02:38:31;23.00;78.20
22416;DHT22;12204;50.600;4.608;2023-05-10T02:43:38;23.00;78.40
22416;DHT22;12204;50.600;4.608;2023-05-10T02:48:44;23.00;78.50
22416;DHT22;12204;50.600;4.608;2023-05-10T02:53:51;23.00;78.60
22416;DHT22;12204;50.600;4.608;2023-05-10T02:58:58;23.00;78.40
22416;DHT22;12204;50.600;4.608;2023-05-10T03:04:02;23.00;78.40
22416;DHT22;12204;50.600;4.608;2023-05-10T03:09:08;23.00;78.40
22416;DHT22;12204;50.600;4.608;2023-05-10T03:14:21;23.00;79.20
22416;DHT22;12204;50.600;4.608;2023-05-10T03:19:39;23.00;78.40
22416;DHT22;12204;50.600;4.608;2023-05-10T03:24:53;22.90;78.50
22416;DHT22;12204;50.600;4.608;2023-05-10T03:30:02;23.00;78.50
22416;DHT22;12204;50.600;4.608;2023-05-10T03:35:08;22.90;78.50
22416;DHT22;12204;50.600;4.608;2023-05-10T03:40:13;23.00;78.60
22416;DHT22;12204;50.600;4.608;2023-05-10T03:45:18;23.00;78.50
22416;DHT22;12204;50.600;4.608;2023-05-10T03:50:22;23.00;78.50
22416;DHT22;12204;50.600;4.608;2023-05-10T03:55:27;22.90;78.50
22416;DHT22;12204;50.600;4.608;2023-05-10T04:00:31;22.90;78.50
22416;DHT22;12204;50.600;4.608;2023-05-10T04:05:35;22.90;78.50
22416;DHT22;12204;50.600;4.608;2023-05-10T04:10:40;22.90;78.50
22416;DHT22;12204;50.600;4.608;2023-05-10T04:15:44;22.90;78.50
22416;DHT22;12204;50.600;4.608;2023-05-10T04:20:49;22.90;78.50
22416;DHT22;12204;50.600;4.608;2023-05-10T04:26:00;22.90;78.40
22416;DHT22;12204;50.600;4.608;2023-05-10T04:31:06;22.90;78.20
22416;DHT22;12204;50.600;4.608;2023-05-10T04:36:12;22.90;78.50
22416;DHT22;12204;50.600;4.608;2023-05-10T04:41:18;22.90;78.50
22416;DHT22;12204;50.600;4.608;2023-05-10T04:46:23;22.90;78.50
22416;DHT22;12204;50.600;4.608;2023-05-10T04:51:27;22.90;78.60
22416;DHT22;12204;50.600;4.608;2023-05-10T04:56:34;22.90;78.60
22416;DHT22;12204;50.600;4.608;2023-05-10T05:01:39;23.00;78.80
22416;DHT22;12204;50.600;4.608;2023-05-10T05:06:43;23.00;78.60
22416;DHT22;12204;50.600;4.608;2023-05-10T05:11:50;22.90;78.60
22416;DHT22;12204;50.600;4.608;2023-05-10T05:16:53;22.90;78.60
22416;DHT22;12204;50.600;4.608;2023-05-10T05:21:57;22.90;78.60
22416;DHT22;12204;50.600;4.608;2023-05-10T05:27:03;22.90;78.30
22416;DHT22;12204;50.600;4.608;2023-05-10T05:32:07;22.90;78.40
22416;DHT22;12204;50.600;4.608;2023-05-10T05:37:13;23.00;78.30
22416;DHT22;12204;50.600;4.608;2023-05-10T05:42:18;22.90;78.00
22416;DHT22;12204;50.600;4.608;2023-05-10T05:47:24;22.90;77.90
22416;DHT22;12204;50.600;4.608;2023-05-10T05:52:33;22.90;77.70
22416;DHT22;12204;50.600;4.608;2023-05-10T05:57:40;22.90;77.50
22416;DHT22;12204;50.600;4.608;2023-05-10T06:02:44;22.90;77.10
22416;DHT22;12204;50.600;4.608;2023-05-10T06:07:48;22.80;75.60
22416;DHT22;12204;50.600;4.608;2023-05-10T06:12:53;22.70;74.50
22416;DHT22;12204;50.600;4.608;2023-05-10T06:17:56;22.60;73.70
22416;DHT22;12204;50.600;4.608;2023-05-10T06:23:00;22.50;73.20
22416;DHT22;12204;50.600;4.608;2023-05-10T06:28:04;22.40;73.10
22416;DHT22;12204;50.600;4.608;2023-05-10T06:33:08;22.50;73.50
22416;DHT22;12204;50.600;4.608;2023-05-10T06:38:11;22.50;73.20
22416;DHT22;12204;50.600;4.608;2023-05-10T06:43:16;22.50;73.20
22416;DHT22;12204;50.600;4.608;2023-05-10T06:48:20;22.50;73.40
22416;DHT22;12204;50.600;4.608;2023-05-10T06:53:23;22.60;74.80
22416;DHT22;12204;50.600;4.608;2023-05-10T06:58:28;22.70;76.00
22416;DHT22;12204;50.600;4.608;2023-05-10T07:03:32;22.70;76.50
22416;DHT22;12204;50.600;4.608;2023-05-10T07:08:35;22.80;77.40
22416;DHT22;12204;50.600;4.608;2023-05-10T07:13:40;22.80;78.40
22416;DHT22;12204;50.600;4.608;2023-05-10T07:18:46;22.80;78.90
22416;DHT22;12204;50.600;4.608;2023-05-10T07:23:49;22.80;80.50
22416;DHT22;12204;50.600;4.608;2023-05-10T07:28:54;22.90;80.40
22416;DHT22;12204;50.600;4.608;2023-05-10T07:33:58;22.90;81.00
22416;DHT22;12204;50.600;4.608;2023-05-10T07:39:01;22.90;80.50
22416;DHT22;12204;50.600;4.608;2023-05-10T07:44:06;22.90;79.00
22416;DHT22;12204;50.600;4.608;2023-05-10T07:49:09;22.90;78.90
22416;DHT22;12204;50.600;4.608;2023-05-10T07:54:14;22.80;78.30
22416;DHT22;12204;50.600;4.608;2023-05-10T07:59:18;22.80;77.10
22416;DHT22;12204;50.600;4.608;2023-05-10T08:04:22;22.80;77.70
22416;DHT22;12204;50.600;4.608;2023-05-10T08:09:26;22.90;78.20
22416;DHT22;12204;50.600;4.608;2023-05-10T08:14:30;22.90;77.80
22416;DHT22;12204;50.600;4.608;2023-05-10T08:19:34;22.80;77.50
22416;DHT22;12204;50.600;4.608;2023-05-10T08:24:37;22.90;78.50
22416;DHT22;12204;50.600;4.608;2023-05-10T08:29:42;22.90;80.20
22416;DHT22;12204;50.600;4.608;2023-05-10T08:34:51;22.90;81.00
22416;DHT22;12204;50.600;4.608;2023-05-10T08:39:54;22.90;77.80
22416;DHT22;12204;50.600;4.608;2023-05-10T08:44:59;22.90;76.70
22416;DHT22;12204;50.600;4.608;2023-05-10T08:50:04;22.80;79.20
22416;DHT22;12204;50.600;4.608;2023-05-10T08:55:08;22.80;77.40
22416;DHT22;12204;50.600;4.608;2023-05-10T09:00:15;22.80;76.50
22416;DHT22;12204;50.600;4.608;2023-05-10T09:05:19;22.80;76.90
22416;DHT22;12204;50.600;4.608;2023-05-10T09:10:23;22.80;76.00
22416;DHT22;12204;50.600;4.608;2023-05-10T09:15:31;22.80;77.20
22416;DHT22;12204;50.600;4.608;2023-05-10T09:20:34;22.80;78.30
22416;DHT22;12204;50.600;4.608;2023-05-10T09:25:38;22.80;78.20
22416;DHT22;12204;50.600;4.608;2023-05-10T09:30:43;22.80;76.00
22416;DHT22;12204;50.600;4.608;2023-05-10T09:35:47;22.80;76.30
22416;DHT22;12204;50.600;4.608;2023-05-10T09:40:55;22.80;78.40
22416;DHT22;12204;50.600;4.608;2023-05-10T09:46:08;22.80;81.10
22416;DHT22;12204;50.600;4.608;2023-05-10T09:51:19;22.80;80.60
22416;DHT22;12204;50.600;4.608;2023-05-10T09:56:35;22.80;78.60
22416;DHT22;12204;50.600;4.608;2023-05-10T10:01:49;22.80;78.70
22416;DHT22;12204;50.600;4.608;2023-05-10T10:07:01;22.80;79.10
22416;DHT22;12204;50.600;4.608;2023-05-10T10:12:06;22.80;81.60
22416;DHT22;12204;50.600;4.608;2023-05-10T10:17:12;22.70;81.10
22416;DHT22;12204;50.600;4.608;2023-05-10T10:22:17;22.70;80.20
22416;DHT22;12204;50.600;4.608;2023-05-10T10:27:24;22.70;80.60
22416;DHT22;12204;50.600;4.608;2023-05-10T10:32:42;22.60;80.90
22416;DHT22;12204;50.600;4.608;2023-05-10T10:38:36;22.60;80.80
22416;DHT22;12204;50.600;4.608;2023-05-10T10:44:25;22.60;80.30
22416;DHT22;12204;50.600;4.608;2023-05-10T10:49:50;22.50;80.40
22416;DHT22;12204;50.600;4.608;2023-05-10T10:55:00;22.50;80.90
22416;DHT22;12204;50.600;4.608;2023-05-10T11:00:23;22.50;80.50
22416;DHT22;12204;50.600;4.608;2023-05-10T11:05:37;22.50;81.10
22416;DHT22;12204;50.600;4.608;2023-05-10T11:10:52;22.50;80.90
22416;DHT22;12204;50.600;4.608;2023-05-10T11:16:12;22.50;80.60
22416;DHT22;12204;50.600;4.608;2023-05-10T11:21:21;22.50;80.60
22416;DHT22;12204;50.600;4.608;2023-05-10T11:26:30;22.50;81.20
22416;DHT22;12204;50.600;4.608;2023-05-10T11:31:42;22.50;81.40
22416;DHT22;12204;50.600;4.608;2023-05-10T11:36:51;22.60;80.80
22416;DHT22;12204;50.600;4.608;2023-05-10T11:41:58;22.70;82.70
22416;DHT22;12204;50.600;4.608;2023-05-10T11:47:02;22.70;83.10
22416;DHT22;12204;50.600;4.608;2023-05-10T11:52:09;22.80;82.70
22416;DHT22;12204;50.600;4.608;2023-05-10T11:57:14;22.90;91.90
22416;DHT22;12204;50.600;4.608;2023-05-10T12:02:19;22.90;91.20
22416;DHT22;12204;50.600;4.608;2023-05-10T12:07:27;22.90;90.90
22416;DHT22;12204;50.600;4.608;2023-05-10T12:12:42;23.00;90.80
22416;DHT22;12204;50.600;4.608;2023-05-10T12:17:48;23.00;90.00
22416;DHT22;12204;50.600;4.608;2023-05-10T12:22:56;22.90;88.50
22416;DHT22;12204;50.600;4.608;2023-05-10T12:28:05;23.00;87.50
22416;DHT22;12204;50.600;4.608;2023-05-10T12:33:12;22.90;86.90
22416;DHT22;12204;50.600;4.608;2023-05-10T12:38:27;23.00;86.70
22416;DHT22;12204;50.600;4.608;2023-05-10T12:43:36;23.00;89.00
22416;DHT22;12204;50.600;4.608;2023-05-10T12:48:43;22.90;90.30
22416;DHT22;12204;50.600;4.608;2023-05-10T12:53:51;23.00;90.20
22416;DHT22;12204;50.600;4.608;2023-05-10T12:58:59;23.00;88.80
22416;DHT22;12204;50.600;4.608;2023-05-10T13:04:07;22.90;90.10
22416;DHT22;12204;50.600;4.608;2023-05-10T13:09:14;23.00;87.60
22416;DHT22;12204;50.600;4.608;2023-05-10T13:14:18;22.70;80.40
22416;DHT22;12204;50.600;4.608;2023-05-10T13:19:24;22.30;79.30
22416;DHT22;12204;50.600;4.608;2023-05-10T13:24:31;22.20;79.60
22416;DHT22;12204;50.600;4.608;2023-05-10T13:29:36;22.10;78.60
22416;DHT22;12204;50.600;4.608;2023-05-10T13:34:40;22.10;78.80
22416;DHT22;12204;50.600;4.608;2023-05-10T13:40:58;22.30;81.00
22416;DHT22;12204;50.600;4.608;2023-05-10T13:46:02;22.50;81.60
22416;DHT22;12204;50.600;4.608;2023-05-10T13:51:06;22.50;79.70
22416;DHT22;12204;50.600;4.608;2023-05-10T13:56:10;22.70;83.40
22416;DHT22;12204;50.600;4.608;2023-05-10T14:01:14;22.90;82.50
22416;DHT22;12204;50.600;4.608;2023-05-10T14:06:18;23.20;80.80
22416;DHT22;12204;50.600;4.608;2023-05-10T14:11:22;23.00;84.50
22416;DHT22;12204;50.600;4.608;2023-05-10T14:16:26;22.90;84.40
22416;DHT22;12204;50.600;4.608;2023-05-10T14:21:30;22.80;84.50
22416;DHT22;12204;50.600;4.608;2023-05-10T14:26:35;22.80;83.30
22416;DHT22;12204;50.600;4.608;2023-05-10T14:31:39;22.80;86.40
22416;DHT22;12204;50.600;4.608;2023-05-10T14:36:46;22.80;86.00
22416;DHT22;12204;50.600;4.608;2023-05-10T14:41:52;22.70;86.10
22416;DHT22;12204;50.600;4.608;2023-05-10T14:46:57;22.70;84.80
22416;DHT22;12204;50.600;4.608;2023-05-10T14:52:02;22.50;79.50
22416;DHT22;12204;50.600;4.608;2023-05-10T14:57:08;22.40;79.20
22416;DHT22;12204;50.600;4.608;2023-05-10T15:02:12;22.30;80.90
22416;DHT22;12204;50.600;4.608;2023-05-10T15:07:18;22.30;80.90
22416;DHT22;12204;50.600;4.608;2023-05-10T15:12:24;22.20;78.90
22416;DHT22;12204;50.600;4.608;2023-05-10T15:17:29;22.20;79.80
22416;DHT22;12204;50.600;4.608;2023-05-10T15:22:34;22.20;79.50
22416;DHT22;12204;50.600;4.608;2023-05-10T15:27:40;22.30;81.20
22416;DHT22;12204;50.600;4.608;2023-05-10T15:32:45;22.30;80.10
22416;DHT22;12204;50.600;4.608;2023-05-10T15:37:49;22.30;83.60
22416;DHT22;12204;50.600;4.608;2023-05-10T15:42:54;22.30;82.50
22416;DHT22;12204;50.600;4.608;2023-05-10T15:47:58;22.30;83.20
22416;DHT22;12204;50.600;4.608;2023-05-10T15:53:03;22.30;82.90
22416;DHT22;12204;50.600;4.608;2023-05-10T15:58:09;22.30;83.50
22416;DHT22;12204;50.600;4.608;2023-05-10T16:03:13;22.30;82.90
22416;DHT22;12204;50.600;4.608;2023-05-10T16:08:17;22.30;84.00
22416;DHT22;12204;50.600;4.608;2023-05-10T16:13:22;22.30;83.40
22416;DHT22;12204;50.600;4.608;2023-05-10T16:18:27;22.30;84.40
22416;DHT22;12204;50.600;4.608;2023-05-10T16:23:31;22.30;83.40
22416;DHT22;12204;50.600;4.608;2023-05-10T16:28:37;22.20;81.60
22416;DHT22;12204;50.600;4.608;2023-05-10T16:33:42;22.20;81.40
22416;DHT22;12204;50.600;4.608;2023-05-10T16:38:46;22.10;80.60
22416;DHT22;12204;50.600;4.608;2023-05-10T16:43:52;22.10;81.60
22416;DHT22;12204;50.600;4.608;2023-05-10T16:48:59;22.10;81.30
22416;DHT22;12204;50.600;4.608;2023-05-10T16:54:03;22.10;82.00
22416;DHT22;12204;50.600;4.608;2023-05-10T16:59:09;22.00;81.30
22416;DHT22;12204;50.600;4.608;2023-05-10T17:04:13;22.00;81.00
22416;DHT22;12204;50.600;4.608;2023-05-10T17:09:18;22.00;81.20
22416;DHT22;12204;50.600;4.608;2023-05-10T17:14:24;22.00;83.30
22416;DHT22;12204;50.600;4.608;2023-05-10T17:19:28;22.20;84.40
22416;DHT22;12204;50.600;4.608;2023-05-10T17:24:33;22.40;83.30
22416;DHT22;12204;50.600;4.608;2023-05-10T17:29:37;22.70;82.60
22416;DHT22;12204;50.600;4.608;2023-05-10T17:34:41;22.80;81.60
22416;DHT22;12204;50.600;4.608;2023-05-10T17:39:45;22.90;81.70
22416;DHT22;12204;50.600;4.608;2023-05-10T17:44:50;22.90;81.90
22416;DHT22;12204;50.600;4.608;2023-05-10T17:49:53;22.90;81.50
22416;DHT22;12204;50.600;4.608;2023-05-10T17:54:56;22.90;82.80
22416;DHT22;12204;50.600;4.608;2023-05-10T18:00:01;22.90;84.10
22416;DHT22;12204;50.600;4.608;2023-05-10T18:05:07;22.90;85.40
22416;DHT22;12204;50.600;4.608;2023-05-10T18:10:12;22.90;86.80
22416;DHT22;12204;50.600;4.608;2023-05-10T18:15:17;22.90;87.00
22416;DHT22;12204;50.600;4.608;2023-05-10T18:20:20;22.90;86.40
22416;DHT22;12204;50.600;4.608;2023-05-10T18:25:24;22.90;84.20
22416;DHT22;12204;50.600;4.608;2023-05-10T18:30:29;22.80;85.60
22416;DHT22;12204;50.600;4.608;2023-05-10T18:35:33;22.80;86.50
22416;DHT22;12204;50.600;4.608;2023-05-10T18:40:37;22.80;86.70
22416;DHT22;12204;50.600;4.608;2023-05-10T18:45:42;22.80;87.10
22416;DHT22;12204;50.600;4.608;2023-05-10T18:50:45;22.80;87.40
22416;DHT22;12204;50.600;4.608;2023-05-10T18:55:54;22.70;87.50
22416;DHT22;12204;50.600;4.608;2023-05-10T19:01:00;22.70;87.50
22416;DHT22;12204;50.600;4.608;2023-05-10T19:06:04;22.70;87.30
22416;DHT22;12204;50.600;4.608;2023-05-10T19:11:07;22.70;87.50
22416;DHT22;12204;50.600;4.608;2023-05-10T19:16:13;22.70;87.40
22416;DHT22;12204;50.600;4.608;2023-05-10T19:21:23;22.70;87.60
22416;DHT22;12204;50.600;4.608;2023-05-10T19:26:27;22.60;87.60
22416;DHT22;12204;50.600;4.608;2023-05-10T19:31:32;22.60;87.40
22416;DHT22;12204;50.600;4.608;2023-05-10T19:36:36;22.60;87.20
22416;DHT22;12204;50.600;4.608;2023-05-10T19:41:40;22.60;87.10
22416;DHT22;12204;50.600;4.608;2023-05-10T19:46:45;22.60;86.80
22416;DHT22;12204;50.600;4.608;2023-05-10T19:51:48;22.60;86.70
22416;DHT22;12204;50.600;4.608;2023-05-10T19:56:51;22.60;86.70
22416;DHT22;12204;50.600;4.608;2023-05-10T20:01:56;22.50;86.50
22416;DHT22;12204;50.600;4.608;2023-05-10T20:06:59;22.50;86.60
22416;DHT22;12204;50.600;4.608;2023-05-10T20:12:03;22.50;86.50
22416;DHT22;12204;50.600;4.608;2023-05-10T20:17:08;22.50;86.30
22416;DHT22;12204;50.600;4.608;2023-05-10T20:22:11;22.50;86.20
22416;DHT22;12204;50.600;4.608;2023-05-10T20:27:15;22.50;86.40
22416;DHT22;12204;50.600;4.608;2023-05-10T20:32:20;22.50;86.10
22416;DHT22;12204;50.600;4.608;2023-05-10T20:37:24;22.50;86.20
22416;DHT22;12204;50.600;4.608;2023-05-10T20:42:28;22.50;85.70
22416;DHT22;12204;50.600;4.608;2023-05-10T20:47:34;22.50;85.90
22416;DHT22;12204;50.600;4.608;2023-05-10T20:52:38;22.40;85.60
22416;DHT22;12204;50.600;4.608;2023-05-10T20:57:41;22.40;85.60
22416;DHT22;12204;50.600;4.608;2023-05-10T21:02:47;22.40;86.10
22416;DHT22;12204;50.600;4.608;2023-05-10T21:07:50;22.40;85.70
22416;DHT22;12204;50.600;4.608;2023-05-10T21:12:55;22.40;85.60
22416;DHT22;12204;50.600;4.608;2023-05-10T21:18:00;22.40;85.70
22416;DHT22;12204;50.600;4.608;2023-05-10T21:23:03;22.40;85.60
22416;DHT22;12204;50.600;4.608;2023-05-10T21:28:07;22.40;85.40
22416;DHT22;12204;50.600;4.608;2023-05-10T21:33:12;22.40;85.50
22416;DHT22;12204;50.600;4.608;2023-05-10T21:38:16;22.30;85.60
22416;DHT22;12204;50.600;4.608;2023-05-10T21:43:19;22.30;85.40
22416;DHT22;12204;50.600;4.608;2023-05-10T21:48:24;22.30;85.40
22416;DHT22;12204;50.600;4.608;2023-05-10T21:53:27;22.30;85.30
22416;DHT22;12204;50.600;4.608;2023-05-10T21:58:31;22.30;85.20
22416;DHT22;12204;50.600;4.608;2023-05-10T22:03:36;22.30;85.20
22416;DHT22;12204;50.600;4.608;2023-05-10T22:08:40;22.30;85.80
22416;DHT22;12204;50.600;4.608;2023-05-10T22:13:43;22.40;86.50
22416;DHT22;12204;50.600;4.608;2023-05-10T22:18:48;22.40;86.60
22416;DHT22;12204;50.600;4.608;2023-05-10T22:23:51;22.50;86.20
22416;DHT22;12204;50.600;4.608;2023-05-10T22:28:55;22.50;86.20
22416;DHT22;12204;50.600;4.608;2023-05-10T22:34:00;22.60;86.00
22416;DHT22;12204;50.600;4.608;2023-05-10T22:39:04;22.60;85.60
22416;DHT22;12204;50.600;4.608;2023-05-10T22:44:08;22.60;85.70
22416;DHT22;12204;50.600;4.608;2023-05-10T22:49:13;22.60;85.30
22416;DHT22;12204;50.600;4.608;2023-05-10T22:54:17;22.60;85.40
22416;DHT22;12204;50.600;4.608;2023-05-10T22:59:21;22.60;85.20
22416;DHT22;12204;50.600;4.608;2023-05-10T23:04:27;22.70;85.70
22416;DHT22;12204;50.600;4.608;2023-05-10T23:09:31;22.70;85.10
22416;DHT22;12204;50.600;4.608;2023-05-10T23:14:35;22.70;85.10
22416;DHT22;12204;50.600;4.608;2023-05-10T23:19:41;22.70;85.30
22416;DHT22;12204;50.600;4.608;2023-05-10T23:24:44;22.70;84.80
22416;DHT22;12204;50.600;4.608;2023-05-10T23:29:48;22.70;84.60
22416;DHT22;12204;50.600;4.608;2023-05-10T23:34:58;22.70;84.70
22416;DHT22;12204;50.600;4.608;2023-05-10T23:40:01;22.70;84.80
22416;DHT22;12204;50.600;4.608;2023-05-10T23:45:06;22.70;85.00
22416;DHT22;12204;50.600;4.608;2023-05-10T23:50:12;22.70;84.80
22416;DHT22;12204;50.600;4.608;2023-05-10T23:55:16;22.70;85.00
